createdAt,value
2018-09-13T00:00:25.304Z,99.90
2018-09-13T00:02:54.420Z,99.90
2018-09-13T00:05:22.914Z,99.90
2018-09-13T00:07:51.374Z,99.90
2018-09-13T00:10:19.806Z,99.90
2018-09-13T00:12:49.135Z,99.90
2018-09-13T00:15:18.940Z,99.90
2018-09-13T00:17:47.469Z,99.90
2018-09-13T00:20:16.714Z,99.90
2018-09-13T00:22:45.255Z,99.90
2018-09-13T00:25:15.053Z,99.90
2018-09-13T00:27:43.538Z,99.90
2018-09-13T00:30:11.973Z,99.90
2018-09-13T00:32:40.458Z,99.90
2018-09-13T00:35:09.122Z,99.90
2018-09-13T00:37:37.636Z,99.90
2018-09-13T00:40:06.584Z,99.90
2018-09-13T00:42:35.064Z,99.90
2018-09-13T00:45:03.630Z,99.90
2018-09-13T00:47:32.776Z,99.90
2018-09-13T00:50:01.281Z,99.90
2018-09-13T00:52:30.383Z,99.90
2018-09-13T00:54:58.870Z,99.90
2018-09-13T00:57:27.404Z,99.90
2018-09-13T00:59:55.847Z,99.90
2018-09-13T01:02:25.125Z,99.90
2018-09-13T01:04:53.682Z,99.90
2018-09-13T01:07:22.722Z,99.90
2018-09-13T01:09:52.879Z,99.90
2018-09-13T01:12:22.083Z,99.90
2018-09-13T01:14:51.181Z,99.90
2018-09-13T01:17:19.622Z,99.90
2018-09-13T01:19:48.839Z,99.90
2018-09-13T01:22:17.637Z,99.90
2018-09-13T01:24:46.087Z,99.90
2018-09-13T01:27:15.208Z,99.90
2018-09-13T01:29:43.674Z,99.90
2018-09-13T01:32:12.111Z,99.90
2018-09-13T01:34:40.704Z,99.90
2018-09-13T01:37:09.150Z,99.90
2018-09-13T01:39:37.638Z,99.90
2018-09-13T01:42:06.111Z,99.90
2018-09-13T01:44:34.605Z,99.90
2018-09-13T01:47:03.080Z,99.90
2018-09-13T01:49:31.514Z,99.90
2018-09-13T01:51:59.971Z,99.90
2018-09-13T01:54:28.528Z,99.90
2018-09-13T01:56:57.977Z,99.90
2018-09-13T01:59:26.430Z,99.90
2018-09-13T02:01:54.909Z,99.90
2018-09-13T02:04:24.111Z,99.90
2018-09-13T02:06:52.701Z,99.90
2018-09-13T02:09:21.341Z,99.90
2018-09-13T02:11:49.807Z,99.90
2018-09-13T02:14:18.424Z,99.90
2018-09-13T02:16:46.975Z,99.90
2018-09-13T02:19:16.186Z,99.90
2018-09-13T02:21:44.763Z,99.90
2018-09-13T02:24:13.813Z,99.90
2018-09-13T02:26:42.979Z,99.90
2018-09-13T02:29:11.455Z,99.90
2018-09-13T02:31:40.386Z,99.90
2018-09-13T02:34:08.852Z,99.90
2018-09-13T02:36:37.339Z,99.90
2018-09-13T02:39:07.885Z,99.90
2018-09-13T02:41:36.368Z,99.90
2018-09-13T02:44:05.550Z,99.90
2018-09-13T02:46:34.070Z,99.90
2018-09-13T02:49:02.574Z,99.90
2018-09-13T02:51:31.072Z,99.90
2018-09-13T02:54:00.345Z,99.90
2018-09-13T02:56:28.845Z,99.90
2018-09-13T02:58:57.320Z,99.90
2018-09-13T03:01:25.995Z,99.90
2018-09-13T03:03:54.442Z,99.90
2018-09-13T03:06:23.630Z,99.90
2018-09-13T03:08:52.822Z,99.90
2018-09-13T03:11:21.281Z,99.90
2018-09-13T03:13:49.992Z,99.90
2018-09-13T03:16:19.224Z,99.90
2018-09-13T03:18:47.683Z,99.90
2018-09-13T03:21:16.121Z,99.90
2018-09-13T03:23:44.611Z,99.90
2018-09-13T03:26:13.796Z,99.90
2018-09-13T03:28:42.369Z,99.90
2018-09-13T03:31:10.794Z,99.90
2018-09-13T03:33:39.443Z,99.90
2018-09-13T03:36:08.431Z,99.90
2018-09-13T03:38:36.903Z,99.90
2018-09-13T03:41:06.071Z,99.90
2018-09-13T03:43:35.275Z,99.90
2018-09-13T03:46:03.753Z,99.90
2018-09-13T03:48:32.385Z,99.90
2018-09-13T03:51:00.922Z,99.90
2018-09-13T03:53:29.474Z,99.90
2018-09-13T03:55:58.116Z,99.90
2018-09-13T03:58:26.677Z,99.90
2018-09-13T04:00:55.209Z,99.90
2018-09-13T04:03:23.723Z,99.90
2018-09-13T04:05:52.350Z,99.90
2018-09-13T04:08:21.008Z,99.90
2018-09-13T04:10:49.564Z,99.90
2018-09-13T04:13:18.086Z,99.90
2018-09-13T04:15:47.789Z,99.90
2018-09-13T04:18:16.260Z,99.90
2018-09-13T04:20:44.714Z,99.90
2018-09-13T04:23:13.163Z,99.90
2018-09-13T04:25:41.664Z,99.90
2018-09-13T04:28:10.181Z,99.90
2018-09-13T04:30:38.588Z,99.90
2018-09-13T04:33:13.844Z,99.90
2018-09-13T04:35:42.448Z,99.90
2018-09-13T04:38:10.976Z,99.90
2018-09-13T04:40:39.406Z,99.90
2018-09-13T04:43:08.363Z,99.90
2018-09-13T04:45:36.779Z,99.90
2018-09-13T04:48:05.981Z,99.90
2018-09-13T04:50:34.442Z,99.90
2018-09-13T04:53:02.954Z,99.90
2018-09-13T04:55:31.418Z,99.90
2018-09-13T04:57:59.907Z,99.90
2018-09-13T05:00:29.069Z,99.90
2018-09-13T05:02:57.546Z,99.90
2018-09-13T05:05:26.000Z,99.90
2018-09-13T05:07:55.222Z,99.90
2018-09-13T05:10:23.737Z,99.90
2018-09-13T05:12:52.798Z,99.90
2018-09-13T05:15:21.243Z,99.90
2018-09-13T05:17:49.813Z,99.90
2018-09-13T05:20:18.295Z,99.90
2018-09-13T05:22:46.775Z,99.90
2018-09-13T05:25:15.267Z,99.90
2018-09-13T05:27:43.692Z,99.90
2018-09-13T05:30:12.261Z,99.90
2018-09-13T05:32:41.767Z,99.90
2018-09-13T05:35:10.379Z,99.90
2018-09-13T05:37:39.763Z,99.90
2018-09-13T05:40:08.305Z,99.90
2018-09-13T05:42:36.861Z,99.90
2018-09-13T05:45:06.375Z,99.90
2018-09-13T05:47:34.884Z,99.90
2018-09-13T05:50:05.085Z,99.90
2018-09-13T05:52:33.693Z,99.90
2018-09-13T05:55:02.180Z,99.90
2018-09-13T05:57:30.775Z,99.90
2018-09-13T05:59:59.226Z,99.90
2018-09-13T06:02:27.804Z,99.90
2018-09-13T06:04:56.325Z,99.90
2018-09-13T06:07:24.980Z,99.90
2018-09-13T06:09:54.344Z,99.90
2018-09-13T06:12:22.889Z,99.90
2018-09-13T06:14:51.531Z,99.90
2018-09-13T06:17:24.224Z,99.90
2018-09-13T06:19:52.771Z,99.90
2018-09-13T06:22:21.243Z,99.90
2018-09-13T06:24:49.751Z,99.90
2018-09-13T06:27:18.341Z,99.90
2018-09-13T06:29:47.622Z,99.90
2018-09-13T06:32:16.190Z,99.90
2018-09-13T06:34:44.762Z,99.90
2018-09-13T06:37:13.598Z,99.90
2018-09-13T06:39:43.466Z,99.90
2018-09-13T06:42:12.193Z,99.90
2018-09-13T06:44:40.761Z,99.90
2018-09-13T06:47:09.236Z,99.90
2018-09-13T06:49:37.844Z,99.90
2018-09-13T06:52:06.471Z,99.90
2018-09-13T06:54:35.040Z,99.90
2018-09-13T06:57:03.621Z,99.90
2018-09-13T06:59:33.117Z,99.90
2018-09-13T07:02:01.619Z,99.90
2018-09-13T07:04:30.356Z,99.90
2018-09-13T07:06:58.977Z,99.90
2018-09-13T07:09:28.521Z,99.90
2018-09-13T07:11:57.212Z,99.90
2018-09-13T07:14:25.709Z,99.90
2018-09-13T07:16:55.331Z,99.90
2018-09-13T07:19:24.854Z,99.90
2018-09-13T07:21:58.197Z,99.90
2018-09-13T07:24:26.850Z,99.90
2018-09-13T07:26:55.442Z,99.90
2018-09-13T07:29:24.004Z,99.90
2018-09-13T07:31:52.537Z,99.90
2018-09-13T07:34:21.055Z,99.90
2018-09-13T07:36:49.756Z,99.90
2018-09-13T07:39:18.319Z,99.90
2018-09-13T07:41:49.239Z,99.90
2018-09-13T11:23:37.106Z,83.60
2018-09-13T11:26:05.689Z,82.80
2018-09-13T11:28:34.239Z,81.90
2018-09-13T11:31:04.384Z,81.20
2018-09-13T11:33:34.089Z,79.60
2018-09-13T11:36:02.517Z,79.30
2018-09-13T11:38:31.247Z,76.50
2018-09-13T11:40:59.824Z,78.40
2018-09-13T11:43:28.958Z,77.50
2018-09-13T11:45:57.511Z,78.10
2018-09-13T11:48:26.052Z,79.00
2018-09-13T11:50:54.524Z,76.80
2018-09-13T11:53:23.041Z,75.20
2018-09-13T11:55:51.615Z,77.50
2018-09-13T11:58:20.177Z,77.80
2018-09-13T12:00:48.824Z,77.30
2018-09-13T12:03:17.398Z,79.30
2018-09-13T12:05:46.324Z,80.20
2018-09-13T12:08:14.824Z,81.40
2018-09-13T12:10:43.375Z,82.80
2018-09-13T12:13:12.593Z,82.10
2018-09-13T12:15:41.076Z,79.30
2018-09-13T12:18:09.663Z,79.80
2018-09-13T12:20:39.088Z,79.90
2018-09-13T12:23:07.603Z,81.40
2018-09-13T12:25:36.087Z,84.00
2018-09-13T12:28:04.665Z,81.30
2018-09-13T12:30:33.198Z,79.50
2018-09-13T12:33:01.726Z,77.90
2018-09-13T12:35:30.263Z,76.30
2018-09-13T12:38:00.019Z,75.90
2018-09-13T12:40:28.631Z,77.10
2018-09-13T12:42:57.894Z,81.00
2018-09-13T12:45:26.538Z,84.30
2018-09-13T12:48:11.521Z,85.20
2018-09-13T12:50:40.821Z,84.00
2018-09-13T12:53:09.397Z,80.10
2018-09-13T12:55:43.101Z,78.80
2018-09-13T12:58:11.610Z,79.50
2018-09-13T13:00:41.071Z,73.90
2018-09-13T13:03:09.584Z,74.80
2018-09-13T13:05:38.074Z,74.40
2018-09-13T13:08:06.526Z,75.30
2018-09-13T13:10:35.058Z,76.40
2018-09-13T13:13:04.253Z,78.70
2018-09-13T13:15:33.125Z,81.60
2018-09-13T13:18:01.875Z,80.60
2018-09-13T13:20:30.360Z,80.00
2018-09-13T13:22:59.412Z,80.40
2018-09-13T13:25:27.903Z,79.30
2018-09-13T13:27:56.491Z,78.80
2018-09-13T13:30:25.356Z,78.60
2018-09-13T13:32:53.960Z,80.00
2018-09-13T13:35:22.450Z,78.70
2018-09-13T13:37:51.144Z,76.90
2018-09-13T13:40:19.911Z,74.40
2018-09-13T13:42:48.368Z,73.60
2018-09-13T13:45:17.434Z,75.40
2018-09-13T13:47:46.002Z,71.70
2018-09-13T13:50:15.055Z,72.40
2018-09-13T13:52:43.474Z,70.60
2018-09-13T13:55:12.060Z,71.20
2018-09-13T13:57:40.586Z,71.60
2018-09-13T14:00:09.130Z,71.90
2018-09-13T14:02:37.606Z,71.90
2018-09-13T14:05:06.394Z,75.70
2018-09-13T14:07:34.926Z,77.80
2018-09-13T14:10:03.508Z,76.50
2018-09-13T14:12:31.960Z,78.00
2018-09-13T14:15:01.243Z,78.20
2018-09-13T14:17:29.820Z,77.20
2018-09-13T14:19:58.766Z,74.20
2018-09-13T14:22:27.323Z,72.10
2018-09-13T14:24:55.852Z,71.70
2018-09-13T14:27:24.335Z,71.50
2018-09-13T14:29:53.473Z,73.10
2018-09-13T14:32:21.898Z,74.20
2018-09-13T14:34:50.403Z,74.70
2018-09-13T14:37:18.945Z,76.20
2018-09-13T14:39:47.526Z,76.10
2018-09-13T14:42:15.998Z,79.20
2018-09-13T14:44:44.464Z,81.50
2018-09-13T14:47:13.372Z,83.80
2018-09-13T14:49:41.879Z,84.10
2018-09-13T14:52:10.344Z,85.20
2018-09-13T14:54:38.847Z,84.30
2018-09-13T14:57:08.680Z,84.20
2018-09-13T14:59:37.205Z,82.20
2018-09-13T15:02:05.650Z,81.20
2018-09-13T15:04:34.812Z,81.00
2018-09-13T15:07:03.293Z,80.20
2018-09-13T15:09:31.793Z,78.80
2018-09-13T15:12:00.234Z,79.20
2018-09-13T15:14:28.720Z,78.50
2018-09-13T15:16:57.182Z,79.00
2018-09-13T15:19:26.436Z,78.80
2018-09-13T15:21:54.889Z,76.90
2018-09-13T15:24:24.033Z,76.70
2018-09-13T15:26:52.427Z,76.00
2018-09-13T15:29:20.927Z,76.40
2018-09-13T15:31:49.391Z,77.30
2018-09-13T15:34:18.021Z,77.00
2018-09-13T15:36:46.545Z,77.30
2018-09-13T15:39:15.019Z,76.60
2018-09-13T15:41:43.553Z,77.00
2018-09-13T15:44:12.101Z,77.60
2018-09-13T15:46:40.710Z,78.30
2018-09-13T15:49:09.311Z,79.20
2018-09-13T15:51:38.207Z,78.50
2018-09-13T15:54:06.709Z,79.00
2018-09-13T15:56:35.316Z,78.50
2018-09-13T15:59:04.503Z,77.40
2018-09-13T16:01:33.000Z,77.20
2018-09-13T16:04:02.210Z,76.60
2018-09-13T16:06:30.780Z,76.90
2018-09-13T16:08:59.313Z,75.70
2018-09-13T16:11:27.766Z,75.20
2018-09-13T16:13:56.251Z,76.70
2018-09-13T16:16:24.704Z,76.10
2018-09-13T16:18:53.206Z,77.20
2018-09-13T16:21:21.782Z,77.10
2018-09-13T16:23:50.988Z,79.50
2018-09-13T16:26:19.521Z,80.80
2018-09-13T16:28:48.836Z,84.70
2018-09-13T16:31:17.433Z,88.70
2018-09-13T16:33:45.957Z,87.60
2018-09-13T16:36:25.393Z,89.90
2018-09-13T16:38:59.237Z,91.10
2018-09-13T16:41:32.832Z,93.10
2018-09-13T16:44:04.583Z,93.80
2018-09-13T16:46:38.439Z,94.20
2018-09-13T16:49:07.698Z,94.60
2018-09-13T16:51:36.677Z,94.60
2018-09-13T16:54:05.547Z,95.80
2018-09-13T16:56:34.048Z,96.80
2018-09-13T16:59:02.524Z,97.80
2018-09-13T17:01:31.061Z,98.80
2018-09-13T17:03:59.510Z,99.90
2018-09-13T17:06:28.228Z,99.90
2018-09-13T17:08:56.694Z,99.90
2018-09-13T17:11:26.901Z,99.90
2018-09-13T17:13:55.386Z,99.90
2018-09-13T17:16:23.931Z,99.90
2018-09-13T17:18:52.422Z,99.90
2018-09-13T17:21:21.360Z,99.90
2018-09-13T17:23:49.828Z,99.90
2018-09-13T17:26:19.042Z,99.90
2018-09-13T17:28:47.623Z,99.90
2018-09-13T17:31:16.155Z,99.90
2018-09-13T17:33:44.755Z,99.90
2018-09-13T17:36:13.180Z,99.90
2018-09-13T17:38:41.651Z,99.90
2018-09-13T17:41:10.166Z,99.90
2018-09-13T17:43:38.644Z,99.90
2018-09-13T17:46:07.159Z,99.90
2018-09-13T17:48:35.637Z,99.90
2018-09-13T17:51:04.976Z,99.90
2018-09-13T17:53:33.528Z,99.90
2018-09-13T17:56:02.144Z,99.90
2018-09-13T17:58:30.625Z,99.90
2018-09-13T18:00:59.209Z,99.90
2018-09-13T18:03:28.390Z,99.90
2018-09-13T18:05:57.661Z,99.90
2018-09-13T18:08:26.117Z,99.90
2018-09-13T18:10:54.629Z,99.90
2018-09-13T18:13:23.193Z,99.90
2018-09-13T18:15:51.779Z,99.90
2018-09-13T18:18:20.345Z,99.90
2018-09-13T18:20:48.893Z,99.90
2018-09-13T18:23:17.371Z,99.90
2018-09-13T18:25:45.803Z,99.90
2018-09-13T18:28:14.317Z,99.90
2018-09-13T18:30:42.878Z,99.90
2018-09-13T18:33:12.248Z,99.90
2018-09-13T18:35:40.724Z,99.90
2018-09-13T18:38:09.205Z,99.90
2018-09-13T18:40:37.810Z,99.90
2018-09-13T18:43:06.324Z,99.90
2018-09-13T18:45:34.938Z,99.90
2018-09-13T18:48:03.445Z,99.90
2018-09-13T18:50:32.650Z,99.90
2018-09-13T18:53:01.730Z,99.90
2018-09-13T18:55:30.228Z,99.90
2018-09-13T18:57:58.710Z,99.90
2018-09-13T19:00:27.250Z,99.90
2018-09-13T19:02:55.791Z,99.90
2018-09-13T19:05:24.341Z,99.90
2018-09-13T19:07:52.816Z,99.90
2018-09-13T19:10:21.273Z,99.90
2018-09-13T19:12:50.350Z,99.90
2018-09-13T19:15:19.458Z,99.90
2018-09-13T19:17:48.063Z,99.90
2018-09-13T19:20:16.516Z,99.90
2018-09-13T19:22:45.146Z,99.90
2018-09-13T19:25:13.705Z,99.90
2018-09-13T19:27:42.382Z,99.90
2018-09-13T19:30:10.871Z,99.90
2018-09-13T19:32:39.396Z,99.90
2018-09-13T19:35:07.925Z,99.90
2018-09-13T19:37:36.546Z,99.90
2018-09-13T19:40:05.960Z,99.90
2018-09-13T19:42:34.482Z,99.90
2018-09-13T19:45:03.014Z,99.90
2018-09-13T19:47:32.256Z,99.90
2018-09-13T19:50:01.504Z,99.90
2018-09-13T19:52:30.022Z,99.90
2018-09-13T19:54:58.554Z,99.90
2018-09-13T19:57:27.071Z,99.90
2018-09-13T19:59:55.528Z,99.90
2018-09-13T20:02:24.021Z,99.90
2018-09-13T20:04:52.575Z,99.90
2018-09-13T20:07:21.101Z,99.90
2018-09-13T20:09:49.688Z,99.90
2018-09-13T20:12:18.242Z,99.90
2018-09-13T20:14:46.653Z,99.90
2018-09-13T20:17:15.834Z,99.90
2018-09-13T20:19:44.497Z,99.90
2018-09-13T20:22:13.547Z,99.90
2018-09-13T20:24:42.061Z,99.90
2018-09-13T20:27:10.558Z,99.90
2018-09-13T20:29:39.118Z,99.90
2018-09-13T20:32:07.647Z,99.90
2018-09-13T20:34:36.155Z,99.90
2018-09-13T20:37:04.889Z,99.90
2018-09-13T20:39:34.300Z,99.90
2018-09-13T20:42:02.842Z,99.90
2018-09-13T20:44:31.930Z,99.90
2018-09-13T20:47:00.499Z,99.90
2018-09-13T20:49:29.697Z,99.90
2018-09-13T20:51:58.228Z,99.90
2018-09-13T20:54:26.690Z,99.90
2018-09-13T20:56:55.206Z,99.90
2018-09-13T20:59:23.704Z,99.90
2018-09-13T21:01:52.943Z,99.90
2018-09-13T21:04:22.081Z,99.90
2018-09-13T21:06:51.142Z,99.90
2018-09-13T21:09:19.596Z,99.90
2018-09-13T21:11:48.143Z,99.90
2018-09-13T21:14:17.245Z,99.90
2018-09-13T21:16:45.689Z,99.90
2018-09-13T21:19:14.154Z,99.90
2018-09-13T21:21:42.696Z,99.90
2018-09-13T21:24:11.290Z,99.90
2018-09-13T21:26:39.738Z,99.90
2018-09-13T21:29:08.174Z,99.90
2018-09-13T21:31:36.675Z,99.90
2018-09-13T21:34:05.263Z,99.90
2018-09-13T21:36:33.745Z,99.90
2018-09-13T21:39:02.985Z,99.90
2018-09-13T21:41:31.577Z,99.90
2018-09-13T21:44:00.020Z,99.90
2018-09-13T21:46:28.526Z,99.90
2018-09-13T21:48:56.961Z,99.90
2018-09-13T21:51:26.109Z,99.90
2018-09-13T21:53:54.663Z,99.90
2018-09-13T21:56:23.739Z,99.90
2018-09-13T21:58:52.309Z,99.90
2018-09-13T22:01:20.780Z,99.90
2018-09-13T22:03:49.327Z,99.90
2018-09-13T22:06:17.775Z,99.90
2018-09-13T22:08:46.260Z,99.90
2018-09-13T22:11:15.575Z,99.90
2018-09-13T22:13:44.050Z,99.90
2018-09-13T22:16:12.503Z,99.90
2018-09-13T22:18:40.948Z,99.90
2018-09-13T22:21:09.426Z,99.90
2018-09-13T22:23:37.899Z,99.90
2018-09-13T22:26:06.448Z,99.90
2018-09-13T22:28:34.872Z,99.90
2018-09-13T22:31:03.445Z,99.90
2018-09-13T22:33:31.864Z,99.90
2018-09-13T22:36:00.466Z,99.90
2018-09-13T22:38:30.088Z,99.90
2018-09-13T22:40:58.665Z,99.90
2018-09-13T22:43:31.369Z,99.90
2018-09-13T22:45:59.867Z,99.90
2018-09-13T22:48:28.803Z,99.90
2018-09-13T22:50:57.827Z,99.90
2018-09-13T22:53:26.312Z,99.90
2018-09-13T22:55:54.790Z,99.90
2018-09-13T22:58:23.991Z,99.90
2018-09-13T23:00:56.655Z,99.90
2018-09-13T23:03:26.496Z,99.90
2018-09-13T23:05:56.062Z,99.90
2018-09-13T23:08:24.550Z,99.90
2018-09-13T23:10:53.073Z,99.90
2018-09-13T23:13:21.541Z,99.90
2018-09-13T23:15:50.172Z,99.90
2018-09-13T23:18:19.350Z,99.90
2018-09-13T23:20:49.286Z,99.90
2018-09-13T23:23:17.991Z,99.90
2018-09-13T23:25:46.436Z,99.90
2018-09-13T23:28:14.945Z,99.90
2018-09-13T23:30:43.503Z,99.90
2018-09-13T23:33:12.623Z,99.90
2018-09-13T23:35:41.244Z,99.90
2018-09-13T23:38:09.701Z,99.90
2018-09-13T23:40:38.232Z,99.90
2018-09-13T23:43:07.162Z,99.90
2018-09-13T23:45:35.604Z,99.90
2018-09-13T23:48:04.654Z,99.90
2018-09-13T23:50:33.106Z,99.90
2018-09-13T23:53:01.599Z,99.90
2018-09-13T23:55:30.130Z,99.90
2018-09-13T23:57:58.576Z,99.90
